createdAt,value
2022-12-01T00:01:12.644Z,2.60
2022-12-01T00:03:39.790Z,2.60
2022-12-01T00:06:18.024Z,2.60
2022-12-01T00:09:07.296Z,2.50
2022-12-01T00:11:35.852Z,2.50
2022-12-01T00:14:03.043Z,2.60
2022-12-01T00:16:30.727Z,2.60
2022-12-01T00:18:58.226Z,2.50
2022-12-01T00:21:26.634Z,2.60
2022-12-01T00:23:55.619Z,2.60
2022-12-01T00:26:23.101Z,2.60
2022-12-01T00:28:55.952Z,2.60
2022-12-01T00:31:23.264Z,2.50
2022-12-01T00:33:50.479Z,2.50
2022-12-01T00:36:17.900Z,2.50
2022-12-01T00:38:44.713Z,2.50
2022-12-01T00:41:11.697Z,2.50
2022-12-01T00:43:39.715Z,2.50
2022-12-01T00:46:07.304Z,2.50
2022-12-01T00:48:34.187Z,2.50
2022-12-01T00:51:01.206Z,2.50
2022-12-01T00:53:28.169Z,2.50
2022-12-01T00:55:55.385Z,2.50
2022-12-01T00:58:23.464Z,2.50
2022-12-01T01:00:58.096Z,2.60
2022-12-01T01:03:25.725Z,2.60
2022-12-01T01:05:52.631Z,2.60
2022-12-01T01:08:19.507Z,2.60
2022-12-01T01:10:48.272Z,2.60
2022-12-01T01:13:15.961Z,2.60
2022-12-01T01:15:42.733Z,2.60
2022-12-01T01:18:12.263Z,2.60
2022-12-01T01:20:39.315Z,2.70
2022-12-01T01:23:06.260Z,2.70
2022-12-01T01:25:33.600Z,2.70
2022-12-01T01:28:00.743Z,2.70
2022-12-01T01:30:27.888Z,2.70
2022-12-01T01:32:55.292Z,2.80
2022-12-01T01:35:22.242Z,2.80
2022-12-01T01:37:50.880Z,2.80
2022-12-01T01:40:18.321Z,2.80
2022-12-01T01:42:45.342Z,2.70
2022-12-01T01:45:24.449Z,2.70
2022-12-01T01:47:53.157Z,2.70
2022-12-01T01:50:25.088Z,2.70
2022-12-01T01:53:04.594Z,2.70
2022-12-01T01:55:34.772Z,2.70
2022-12-01T01:58:04.771Z,2.80
2022-12-01T02:00:31.718Z,2.70
2022-12-01T02:03:00.277Z,2.80
2022-12-01T02:05:32.254Z,2.80
2022-12-01T02:08:00.562Z,2.70
2022-12-01T02:10:47.193Z,2.80
2022-12-01T02:13:46.368Z,2.80
2022-12-01T02:16:31.366Z,2.80
2022-12-01T02:19:10.103Z,2.80
2022-12-01T02:22:03.155Z,2.80
2022-12-01T02:24:51.819Z,2.80
2022-12-01T02:27:27.288Z,2.80
2022-12-01T02:30:06.409Z,2.80
2022-12-01T02:33:06.438Z,2.80
2022-12-01T02:35:49.281Z,2.80
2022-12-01T02:38:35.187Z,2.80
2022-12-01T02:41:20.154Z,2.80
2022-12-01T02:44:01.876Z,2.80
2022-12-01T02:46:35.943Z,2.80
2022-12-01T02:49:10.168Z,2.80
2022-12-01T02:51:40.115Z,2.80
2022-12-01T02:54:07.341Z,2.80
2022-12-01T02:56:34.390Z,2.80
2022-12-01T02:59:01.270Z,2.80
2022-12-01T03:01:46.263Z,2.90
2022-12-01T03:04:32.661Z,2.80
2022-12-01T03:07:35.981Z,2.80
2022-12-01T03:10:24.956Z,2.80
2022-12-01T03:13:21.845Z,2.80
2022-12-01T03:16:03.826Z,2.80
2022-12-01T03:18:43.149Z,2.90
2022-12-01T03:21:16.454Z,2.80
2022-12-01T03:23:47.801Z,2.80
2022-12-01T03:26:19.644Z,2.80
2022-12-01T03:28:51.605Z,2.80
2022-12-01T03:31:23.129Z,2.80
2022-12-01T03:34:02.463Z,2.80
2022-12-01T03:36:53.069Z,2.90
2022-12-01T03:39:23.990Z,2.90
2022-12-01T03:41:56.621Z,2.90
2022-12-01T03:44:36.205Z,2.90
2022-12-01T03:47:31.039Z,2.90
2022-12-01T03:49:59.541Z,2.90
2022-12-01T03:53:02.162Z,2.90
2022-12-01T03:55:33.673Z,2.90
2022-12-01T03:58:20.307Z,2.90
2022-12-01T04:00:53.366Z,2.90
2022-12-01T04:03:25.175Z,2.90
2022-12-01T04:05:52.572Z,2.90
2022-12-01T04:08:19.407Z,2.90
2022-12-01T04:10:46.297Z,3.00
2022-12-01T04:13:22.391Z,3.00
2022-12-01T04:15:51.069Z,3.00
2022-12-01T04:18:18.961Z,3.00
2022-12-01T04:20:49.457Z,3.00
2022-12-01T04:23:36.216Z,3.00
2022-12-01T04:26:04.847Z,3.00
2022-12-01T04:28:31.724Z,3.00
2022-12-01T04:30:58.689Z,3.00
2022-12-01T04:33:25.561Z,3.00
2022-12-01T04:35:59.796Z,3.00
2022-12-01T04:38:30.474Z,3.00
2022-12-01T04:40:58.189Z,3.00
2022-12-01T04:43:25.229Z,3.10
2022-12-01T04:45:52.150Z,3.10
2022-12-01T04:48:19.043Z,3.10
2022-12-01T04:50:48.545Z,3.10
2022-12-01T04:53:15.378Z,3.10
2022-12-01T04:55:42.223Z,3.10
2022-12-01T04:58:09.028Z,3.10
2022-12-01T05:00:37.418Z,3.10
2022-12-01T05:03:04.699Z,3.10
2022-12-01T05:05:31.792Z,3.10
2022-12-01T05:07:59.539Z,3.20
2022-12-01T05:10:26.566Z,3.20
2022-12-01T05:12:53.492Z,3.20
2022-12-01T05:15:20.440Z,3.20
2022-12-01T05:17:47.374Z,3.20
2022-12-01T05:20:38.444Z,3.20
2022-12-01T05:23:06.457Z,3.20
2022-12-01T05:25:34.290Z,3.20
2022-12-01T05:28:01.210Z,3.20
2022-12-01T05:30:28.939Z,3.20
2022-12-01T05:32:55.972Z,3.20
2022-12-01T05:35:22.949Z,3.20
2022-12-01T05:37:49.857Z,3.20
2022-12-01T05:40:16.801Z,3.20
2022-12-01T05:42:43.789Z,3.20
2022-12-01T05:45:10.984Z,3.20
2022-12-01T05:47:37.799Z,3.30
2022-12-01T05:50:06.125Z,3.30
2022-12-01T05:52:36.650Z,3.30
2022-12-01T05:55:07.640Z,3.30
2022-12-01T05:57:34.505Z,3.20
2022-12-01T06:00:01.432Z,3.30
2022-12-01T06:02:39.044Z,3.30
2022-12-01T06:05:06.840Z,3.30
2022-12-01T06:07:35.695Z,3.30
2022-12-01T06:10:03.412Z,3.30
2022-12-01T06:12:30.309Z,3.30
2022-12-01T06:14:57.808Z,3.30
2022-12-01T06:17:24.658Z,3.30
2022-12-01T06:19:51.774Z,3.30
2022-12-01T06:22:18.877Z,3.40
2022-12-01T06:24:45.726Z,3.40
2022-12-01T06:27:12.603Z,3.40
2022-12-01T06:29:42.247Z,3.40
2022-12-01T06:32:09.947Z,3.40
2022-12-01T06:34:36.818Z,3.40
2022-12-01T06:37:03.611Z,3.40
2022-12-01T06:39:30.533Z,3.40
2022-12-01T06:41:57.308Z,3.40
2022-12-01T06:44:24.127Z,3.40
2022-12-01T06:46:52.945Z,3.40
2022-12-01T06:49:20.368Z,3.40
2022-12-01T06:51:47.547Z,3.40
2022-12-01T06:54:15.291Z,3.40
2022-12-01T06:56:43.098Z,3.40
2022-12-01T06:59:10.240Z,3.40
2022-12-01T07:01:37.463Z,3.40
2022-12-01T07:04:04.374Z,3.40
2022-12-01T07:06:32.036Z,3.30
2022-12-01T07:08:58.957Z,3.40
2022-12-01T07:11:26.030Z,3.40
2022-12-01T07:13:55.766Z,3.40
2022-12-01T07:16:23.236Z,3.40
2022-12-01T07:18:50.547Z,3.30
2022-12-01T07:21:17.371Z,3.30
2022-12-01T07:23:44.407Z,3.40
2022-12-01T07:26:13.947Z,3.40
2022-12-01T07:28:40.944Z,3.40
2022-12-01T07:31:26.152Z,3.40
2022-12-01T07:33:53.152Z,3.40
2022-12-01T07:36:20.169Z,3.40
2022-12-01T07:38:47.063Z,3.40
2022-12-01T07:41:16.141Z,3.40
2022-12-01T07:43:43.305Z,3.40
2022-12-01T07:46:23.561Z,3.40
2022-12-01T07:48:52.295Z,3.40
2022-12-01T07:51:19.635Z,3.40
2022-12-01T07:53:48.159Z,3.40
2022-12-01T07:56:15.912Z,3.40
2022-12-01T07:58:42.803Z,3.40
2022-12-01T08:01:14.254Z,3.40
2022-12-01T08:03:42.387Z,3.40
2022-12-01T08:06:10.195Z,3.40
2022-12-01T08:08:39.246Z,3.50
2022-12-01T08:11:11.665Z,3.50
2022-12-01T08:13:39.605Z,3.50
2022-12-01T08:16:07.954Z,3.50
2022-12-01T08:18:36.361Z,3.50
2022-12-01T08:21:04.522Z,3.50
2022-12-01T08:23:31.384Z,3.50
2022-12-01T08:26:07.002Z,3.50
2022-12-01T08:28:36.394Z,3.50
2022-12-01T08:31:14.981Z,3.50
2022-12-01T08:33:42.099Z,3.50
2022-12-01T08:36:09.402Z,3.50
2022-12-01T08:38:36.304Z,3.50
2022-12-01T08:41:05.601Z,3.60
2022-12-01T08:43:56.655Z,3.60
2022-12-01T08:46:19.717Z,3.60
2022-12-01T08:48:46.950Z,3.60
2022-12-01T08:51:15.742Z,3.60
2022-12-01T08:53:47.207Z,3.60
2022-12-01T08:56:24.211Z,3.70
2022-12-01T08:58:51.802Z,3.60
2022-12-01T09:01:19.739Z,3.70
2022-12-01T09:03:47.313Z,3.70
2022-12-01T09:06:17.309Z,3.70
2022-12-01T09:08:44.465Z,3.70
2022-12-01T09:11:14.822Z,3.70
2022-12-01T09:13:43.453Z,3.70
2022-12-01T09:16:18.132Z,3.80
2022-12-01T09:18:46.562Z,3.80
2022-12-01T09:21:22.070Z,3.80
2022-12-01T09:23:49.198Z,3.80
2022-12-01T09:26:18.999Z,3.80
2022-12-01T09:28:56.827Z,3.80
2022-12-01T09:31:24.380Z,3.80
2022-12-01T09:33:59.513Z,3.90
2022-12-01T09:36:26.830Z,3.90
2022-12-01T09:38:53.812Z,3.90
2022-12-01T09:41:37.639Z,3.90
2022-12-01T09:44:14.026Z,3.90
2022-12-01T09:46:49.944Z,3.90
2022-12-01T09:49:24.197Z,4.00
2022-12-01T09:51:54.251Z,4.00
2022-12-01T09:54:21.517Z,4.00
2022-12-01T09:56:53.087Z,4.10
2022-12-01T09:59:31.845Z,4.10
2022-12-01T10:02:03.208Z,4.10
2022-12-01T10:04:39.818Z,4.10
2022-12-01T10:07:14.942Z,4.10
2022-12-01T10:09:57.799Z,4.10
2022-12-01T10:12:27.906Z,4.10
2022-12-01T10:15:18.439Z,4.10
2022-12-01T10:18:03.601Z,4.10
2022-12-01T10:20:56.427Z,4.00
2022-12-01T10:23:49.461Z,4.10
2022-12-01T10:26:42.150Z,4.10
2022-12-01T10:29:28.181Z,4.10
2022-12-01T10:32:04.771Z,4.10
2022-12-01T10:34:38.125Z,4.10
2022-12-01T10:37:05.801Z,4.10
2022-12-01T10:39:43.969Z,4.10
2022-12-01T10:42:22.885Z,4.10
2022-12-01T10:44:50.737Z,4.10
2022-12-01T10:47:21.089Z,4.10
2022-12-01T10:49:48.395Z,4.20
2022-12-01T10:52:34.390Z,4.20
2022-12-01T10:55:02.241Z,4.20
2022-12-01T10:57:31.060Z,4.20
2022-12-01T11:00:05.867Z,4.20
2022-12-01T11:02:33.593Z,4.20
2022-12-01T11:05:04.544Z,4.20
2022-12-01T11:07:43.147Z,4.20
2022-12-01T11:10:35.857Z,4.20
2022-12-01T11:13:17.536Z,4.20
2022-12-01T11:15:56.121Z,4.20
2022-12-01T11:18:36.618Z,4.20
2022-12-01T11:21:25.266Z,4.20
2022-12-01T11:23:54.371Z,4.20
2022-12-01T11:26:28.187Z,4.20
2022-12-01T11:28:59.319Z,4.20
2022-12-01T11:31:41.381Z,4.20
2022-12-01T11:34:23.741Z,4.20
2022-12-01T11:36:56.641Z,4.20
2022-12-01T11:39:30.138Z,4.20
2022-12-01T11:42:06.695Z,4.20
2022-12-01T11:44:50.861Z,4.20
2022-12-01T11:47:24.975Z,4.20
2022-12-01T11:49:56.582Z,4.20
2022-12-01T11:52:31.504Z,4.10
2022-12-01T11:55:06.883Z,4.10
2022-12-01T11:57:39.871Z,4.10
2022-12-01T12:00:18.201Z,4.10
2022-12-01T12:02:57.220Z,4.10
2022-12-01T12:05:35.988Z,4.10
2022-12-01T12:08:39.229Z,4.10
2022-12-01T12:11:21.324Z,4.10
2022-12-01T12:14:07.023Z,4.10
2022-12-01T12:17:19.007Z,4.10
2022-12-01T12:20:08.056Z,4.10
2022-12-01T12:23:00.776Z,4.10
2022-12-01T12:25:38.280Z,4.00
2022-12-01T12:28:23.228Z,4.00
2022-12-01T12:31:23.514Z,4.00
2022-12-01T12:34:23.631Z,4.00
2022-12-01T12:37:27.896Z,4.00
2022-12-01T12:40:22.505Z,4.00
2022-12-01T12:43:21.154Z,3.90
2022-12-01T12:46:14.128Z,3.90
2022-12-01T12:49:19.865Z,3.90
2022-12-01T12:52:10.025Z,3.90
2022-12-01T12:54:39.912Z,3.80
2022-12-01T12:57:29.107Z,3.90
2022-12-01T13:00:14.176Z,3.90
2022-12-01T13:02:46.937Z,3.80
2022-12-01T13:05:16.688Z,3.80
2022-12-01T13:08:10.194Z,3.80
2022-12-01T13:10:54.669Z,3.80
2022-12-01T13:13:42.477Z,3.70
2022-12-01T13:16:25.932Z,3.70
2022-12-01T13:19:13.524Z,3.70
2022-12-01T13:21:43.747Z,3.70
2022-12-01T13:24:22.796Z,3.70
2022-12-01T13:26:55.612Z,3.70
2022-12-01T13:29:24.826Z,3.60
2022-12-01T13:31:53.632Z,3.70
2022-12-01T13:34:33.476Z,3.60
2022-12-01T13:37:00.564Z,3.60
2022-12-01T13:39:35.579Z,3.60
2022-12-01T13:42:18.993Z,3.60
2022-12-01T13:45:01.914Z,3.60
2022-12-01T13:47:47.029Z,3.60
2022-12-01T13:50:45.757Z,3.60
2022-12-01T13:53:13.972Z,3.60
2022-12-01T13:56:17.438Z,3.50
2022-12-01T13:58:47.670Z,3.50
2022-12-01T14:01:20.999Z,3.50
2022-12-01T14:04:02.501Z,3.50
2022-12-01T14:06:39.000Z,3.50
2022-12-01T14:09:17.123Z,3.50
2022-12-01T14:12:05.963Z,3.50
2022-12-01T14:14:38.991Z,3.50
2022-12-01T14:17:07.654Z,3.50
2022-12-01T14:19:47.935Z,3.50
2022-12-01T14:22:33.000Z,3.40
2022-12-01T14:25:00.399Z,3.50
2022-12-01T14:27:40.747Z,3.40
2022-12-01T14:30:45.732Z,3.50
2022-12-01T14:33:43.292Z,3.40
2022-12-01T14:36:14.028Z,3.40
2022-12-01T14:38:42.126Z,3.40
2022-12-01T14:41:18.271Z,3.40
2022-12-01T14:44:04.584Z,3.40
2022-12-01T14:46:55.861Z,3.40
2022-12-01T14:49:32.545Z,3.40
2022-12-01T14:52:06.731Z,3.40
2022-12-01T14:54:46.582Z,3.40
2022-12-01T14:57:18.580Z,3.50
2022-12-01T14:59:45.535Z,3.40
2022-12-01T15:02:13.632Z,3.40
2022-12-01T15:05:06.682Z,3.40
2022-12-01T15:07:39.061Z,3.50
2022-12-01T15:10:15.519Z,3.40
2022-12-01T15:12:42.395Z,3.40
2022-12-01T15:15:24.188Z,3.40
2022-12-01T15:17:53.206Z,3.40
2022-12-01T15:20:37.824Z,3.40
2022-12-01T15:23:15.884Z,3.50
2022-12-01T15:25:44.989Z,3.50
2022-12-01T15:28:18.797Z,3.50
2022-12-01T15:30:52.764Z,3.50
2022-12-01T15:33:34.019Z,3.50
2022-12-01T15:36:04.326Z,3.50
2022-12-01T15:38:36.514Z,3.50
2022-12-01T15:41:28.409Z,3.50
2022-12-01T15:43:58.945Z,3.50
2022-12-01T15:46:34.622Z,3.50
2022-12-01T15:49:15.967Z,3.50
2022-12-01T15:51:43.174Z,3.50
2022-12-01T15:54:22.627Z,3.50
2022-12-01T15:56:58.595Z,3.50
2022-12-01T15:59:35.090Z,3.40
2022-12-01T16:02:20.061Z,3.40
2022-12-01T16:04:48.886Z,3.40
2022-12-01T16:07:15.996Z,3.40
2022-12-01T16:10:04.002Z,3.50
2022-12-01T16:12:37.105Z,3.40
2022-12-01T16:15:14.833Z,3.40
2022-12-01T16:17:51.290Z,3.40
2022-12-01T16:20:34.555Z,3.40
2022-12-01T16:23:11.130Z,3.40
2022-12-01T16:25:47.836Z,3.40
2022-12-01T16:28:27.703Z,3.40
2022-12-01T16:30:55.035Z,3.40
2022-12-01T16:33:24.441Z,3.40
2022-12-01T16:35:52.278Z,3.40
2022-12-01T16:38:22.472Z,3.40
2022-12-01T16:40:55.207Z,3.40
2022-12-01T16:43:24.480Z,3.40
2022-12-01T16:46:00.347Z,3.40
2022-12-01T16:48:27.549Z,3.30
2022-12-01T16:50:54.996Z,3.30
2022-12-01T16:53:21.898Z,3.30
2022-12-01T16:55:55.913Z,3.30
2022-12-01T16:58:23.510Z,3.30
2022-12-01T17:00:54.164Z,3.40
2022-12-01T17:03:23.654Z,3.30
2022-12-01T17:05:50.790Z,3.40
2022-12-01T17:08:17.966Z,3.30
2022-12-01T17:10:49.513Z,3.30
2022-12-01T17:13:17.068Z,3.40
2022-12-01T17:15:48.728Z,3.40
2022-12-01T17:18:17.398Z,3.40
2022-12-01T17:20:55.619Z,3.40
2022-12-01T17:23:22.441Z,3.40
2022-12-01T17:25:49.836Z,3.40
2022-12-01T17:28:17.818Z,3.40
2022-12-01T17:30:44.746Z,3.40
2022-12-01T17:33:11.786Z,3.40
2022-12-01T17:35:39.586Z,3.40
2022-12-01T17:38:07.165Z,3.40
2022-12-01T17:40:34.119Z,3.40
2022-12-01T17:43:01.569Z,3.40
2022-12-01T17:45:28.441Z,3.40
2022-12-01T17:47:55.602Z,3.40
2022-12-01T17:50:24.145Z,3.50
2022-12-01T17:52:50.989Z,3.40
2022-12-01T17:55:17.955Z,3.40
2022-12-01T17:57:44.857Z,3.40
2022-12-01T18:00:14.336Z,3.40
2022-12-01T18:02:41.250Z,3.40
2022-12-01T18:05:08.560Z,3.40
2022-12-01T18:07:35.553Z,3.40
2022-12-01T18:10:02.465Z,3.40
2022-12-01T18:12:29.303Z,3.40
2022-12-01T18:14:56.123Z,3.40
2022-12-01T18:17:22.976Z,3.50
2022-12-01T18:19:49.817Z,3.50
2022-12-01T18:22:16.731Z,3.50
2022-12-01T18:24:43.579Z,3.50
2022-12-01T18:27:10.506Z,3.50
2022-12-01T18:29:37.989Z,3.50
2022-12-01T18:32:05.192Z,3.50
2022-12-01T18:34:32.322Z,3.50
2022-12-01T18:37:02.246Z,3.50
2022-12-01T18:39:29.356Z,3.50
2022-12-01T18:41:56.300Z,3.50
2022-12-01T18:44:23.191Z,3.50
2022-12-01T18:46:50.141Z,3.50
2022-12-01T18:49:17.527Z,3.50
2022-12-01T18:51:44.397Z,3.50
2022-12-01T18:54:13.974Z,3.50
2022-12-01T18:56:40.840Z,3.50
2022-12-01T18:59:09.960Z,3.50
2022-12-01T19:01:43.906Z,3.50
2022-12-01T19:04:11.299Z,3.50
2022-12-01T19:06:39.740Z,3.50
2022-12-01T19:09:09.165Z,3.50
2022-12-01T19:11:37.228Z,3.50
2022-12-01T19:14:04.725Z,3.40
2022-12-01T19:16:32.107Z,3.50
2022-12-01T19:19:00.510Z,3.50
2022-12-01T19:21:27.427Z,3.50
2022-12-01T19:23:54.296Z,3.50
2022-12-01T19:26:22.876Z,3.50
2022-12-01T19:28:49.926Z,3.50
2022-12-01T19:31:24.867Z,3.50
2022-12-01T19:33:55.324Z,3.50
2022-12-01T19:36:27.761Z,3.50
2022-12-01T19:38:57.936Z,3.50
2022-12-01T19:41:25.789Z,3.50
2022-12-01T19:43:54.228Z,3.50
2022-12-01T19:46:23.876Z,3.50
2022-12-01T19:48:56.844Z,3.50
2022-12-01T19:51:27.345Z,3.50
2022-12-01T19:53:54.686Z,3.50
2022-12-01T19:56:22.699Z,3.50
2022-12-01T19:58:49.798Z,3.50
2022-12-01T20:01:18.047Z,3.50
2022-12-01T20:03:48.202Z,3.50
2022-12-01T20:06:17.618Z,3.50
2022-12-01T20:08:45.104Z,3.50
2022-12-01T20:11:12.695Z,3.50
2022-12-01T20:13:41.148Z,3.50
2022-12-01T20:16:10.793Z,3.50
2022-12-01T20:18:38.724Z,3.50
2022-12-01T20:21:19.429Z,3.50
2022-12-01T20:23:48.818Z,3.50
2022-12-01T20:26:18.040Z,3.50
2022-12-01T20:28:50.036Z,3.50
2022-12-01T20:31:23.847Z,3.50
2022-12-01T20:33:53.080Z,3.50
2022-12-01T20:36:22.113Z,3.50
2022-12-01T20:38:49.538Z,3.50
2022-12-01T20:41:16.662Z,3.50
2022-12-01T20:43:43.651Z,3.50
2022-12-01T20:46:12.795Z,3.50
2022-12-01T20:48:39.863Z,3.50
2022-12-01T20:51:08.097Z,3.50
2022-12-01T20:53:35.654Z,3.60
2022-12-01T20:56:07.187Z,3.50
2022-12-01T20:58:37.427Z,3.60
2022-12-01T21:01:15.896Z,3.50
2022-12-01T21:03:44.264Z,3.50
2022-12-01T21:06:13.160Z,3.60
2022-12-01T21:08:41.918Z,3.60
2022-12-01T21:11:41.849Z,3.60
2022-12-01T21:14:19.882Z,3.60
2022-12-01T21:16:49.310Z,3.60
2022-12-01T21:19:44.965Z,3.60
2022-12-01T21:22:14.720Z,3.60
2022-12-01T21:24:43.928Z,3.60
2022-12-01T21:27:17.165Z,3.50
2022-12-01T21:29:50.074Z,3.50
2022-12-01T21:32:19.878Z,3.50
2022-12-01T21:34:47.975Z,3.50
2022-12-01T21:37:25.280Z,3.50
2022-12-01T21:39:56.055Z,3.50
2022-12-01T21:42:26.933Z,3.50
2022-12-01T21:44:56.450Z,3.50
2022-12-01T21:47:29.552Z,3.50
2022-12-01T21:49:59.248Z,3.50
2022-12-01T21:52:41.768Z,3.50
2022-12-01T21:55:14.632Z,3.50
2022-12-01T21:57:47.077Z,3.60
2022-12-01T22:00:36.628Z,3.60
2022-12-01T22:03:09.465Z,3.60
2022-12-01T22:06:01.172Z,3.50
2022-12-01T22:08:35.576Z,3.50
2022-12-01T22:11:18.807Z,3.50
2022-12-01T22:13:52.372Z,3.50
2022-12-01T22:16:56.517Z,3.50
2022-12-01T22:19:37.308Z,3.50
2022-12-01T22:22:09.908Z,3.50
2022-12-01T22:24:41.140Z,3.60
2022-12-01T22:27:35.003Z,3.60
2022-12-01T22:30:19.510Z,3.60
2022-12-01T22:33:00.443Z,3.60
2022-12-01T22:35:34.949Z,3.60
2022-12-01T22:38:08.696Z,3.60
2022-12-01T22:40:58.845Z,3.60
2022-12-01T22:43:28.991Z,3.50
2022-12-01T22:46:07.846Z,3.50
2022-12-01T22:48:41.189Z,3.60
2022-12-01T22:51:14.061Z,3.50
2022-12-01T22:53:42.311Z,3.50
2022-12-01T22:56:26.268Z,3.50
2022-12-01T22:58:54.306Z,3.50
2022-12-01T23:01:24.991Z,3.50
2022-12-01T23:04:13.294Z,3.50
2022-12-01T23:06:53.118Z,3.50
2022-12-01T23:09:21.511Z,3.50
2022-12-01T23:12:01.781Z,3.50
2022-12-01T23:14:29.092Z,3.50
2022-12-01T23:17:06.064Z,3.50
2022-12-01T23:19:34.684Z,3.50
2022-12-01T23:22:02.086Z,3.50
2022-12-01T23:24:33.723Z,3.50
2022-12-01T23:27:01.101Z,3.50
2022-12-01T23:29:29.156Z,3.50
2022-12-01T23:31:56.147Z,3.40
2022-12-01T23:34:23.008Z,3.40
2022-12-01T23:36:51.047Z,3.40
2022-12-01T23:39:20.421Z,3.40
2022-12-01T23:41:51.160Z,3.40
2022-12-01T23:44:40.967Z,3.40
2022-12-01T23:47:20.145Z,3.50
2022-12-01T23:49:48.050Z,3.40
2022-12-01T23:52:19.587Z,3.50
2022-12-01T23:54:47.925Z,3.50
2022-12-01T23:57:23.964Z,3.40
2022-12-01T23:59:54.818Z,3.40
